This is the latest recevied weather packets stored in our database for station/object W4CKA. If no packets are shown the sender has not sent any weather packets the latest 10 day(s).
| Time | Temp. | Humidity | Pressure | Rain* | Wind** | Luminosity | Snow |
|---|---|---|---|---|---|---|---|
| 1777863185 | 7.78° C | 82% | 1059.1 hPa | 0 mm | - | 0 W/m² | - |
| 1777862584 | 7.78° C | 82% | 1059 hPa | 0 mm | - | 0 W/m² | - |
| 1777861983 | 7.22° C | 83% | 1059.1 hPa | 0 mm | - | 0 W/m² | - |
| 1777861381 | 7.78° C | 82% | 1058.9 hPa | 0 mm | - | 0 W/m² | - |
| 1777860782 | 7.78° C | 81% | 1058.8 hPa | 0 mm | - | 0 W/m² | - |
| 1777860181 | 8.33° C | 79% | 1058.8 hPa | 0 mm | - | 0 W/m² | - |
| 1777859579 | 8.89° C | 78% | 1058.8 hPa | 0 mm | - | 0 W/m² | - |
| 1777858977 | 8.89° C | 78% | 1058.7 hPa | 0 mm | - | 0 W/m² | - |
| 1777858373 | 9.44° C | 76% | 1058.5 hPa | 0 mm | - | 0 W/m² | - |
| 1777857773 | 9.44° C | 75% | 1058.5 hPa | 0 mm | - | 0 W/m² | - |
| 1777857172 | 10° C | 72% | 1058.6 hPa | 0 mm | - | 0 W/m² | - |
| 1777856570 | 10° C | 70% | 1058.6 hPa | 0 mm | - | 0 W/m² | - |
| 1777855969 | 11.11° C | 66% | 1058.6 hPa | 0 mm | - | 0 W/m² | - |
| 1777855364 | 11.11° C | 65% | 1058.6 hPa | 0 mm | - | 0 W/m² | - |
| 1777854764 | 12.22° C | 62% | 1058.1 hPa | 0 mm | - | 0 W/m² | - |
| 1777854162 | 12.22° C | 64% | 1058.2 hPa | 0 mm | - | 0 W/m² | - |
| 1777853563 | 12.78° C | 61% | 1057.9 hPa | 0 mm | - | 2 W/m² | - |
| 1777852962 | 13.89° C | 53% | 1058 hPa | 0 mm | - | 9 W/m² | - |
| 1777852357 | 14.44° C | 54% | 1058.2 hPa | 0 mm | - | 15 W/m² | - |
| 1777851753 | 15.56° C | 50% | 1058.2 hPa | 0 mm | - | 18 W/m² | - |
| 1777851151 | 16.67° C | 46% | 1058.4 hPa | 0 mm | - | 26 W/m² | - |
| 1777850551 | 17.22° C | 44% | 1058.4 hPa | 0 mm | - | 62 W/m² | - |
| 1777849946 | 17.78° C | 43% | 1058.4 hPa | 0 mm | - | 83 W/m² | - |
| 1777849346 | 17.78° C | 43% | 1058.5 hPa | 0 mm | - | 97 W/m² | - |
| 1777848743 | 17.22° C | 45% | 1058.5 hPa | 0 mm | - | 128 W/m² | - |
* Rain latest hour (hover to see other rain measurements)
** Current wind speed in m/s (hover to see current wind gust speed)